KHQM

Bowerman Airport

Hoquiam, Washington, USA
METAR KHQM 232324Z AUTO 15018G24KT 2SM -RA BR BKN013 OVC020 10/09 A2976 RMK AO2 P0007 T01000089
Observed Flight Rules
Jan-23 @ 23:24 UTC (21 minutes ago) Instrument Flight Rules
Wind Visibility Clouds Conditions
150° at 18 knots
 Gusting to 24 knots
2 miles
  • Broken at 1,300' AGL
  • Overcast at 2,000' AGL
  • Light Rain
  • Mist
Temperatures Readings Precipitation
Current 10°C / 50°F
Dewpoint 9°C / 48°F
Humidity 94%
Altimeter 29.76" Hg
Pressure 1008 hPa
Elevation 7
Current Rain 0.07
METAR KHQM 232324Z AUTO 15018G24KT 2SM -RA BR BKN013 OVC020 10/09 A2976 RMK AO2 P0007 T01000089
Observed Flight Rules
Jan-23 @ 23:24 UTC
(21 minutes ago)
IFR
Wind Visibility
150° at 18 knots
 Gusting to 24 knots
2 miles
Clouds
  • Broken at 1,300' AGL
  • Overcast at 2,000' AGL
Conditions
  • Light Rain
  • Mist
Temperature Dewpoint
10°C / 50°F 9°C / 48°F
Humidity Altimeter Pressure
94% 29.76" Hg 1008 hPa
Current Rain
0.07